Time;durP1;ratioP1;P1;durP2;ratioP2;P2;SDS_P1;SDS_P2;PMS_P1;PMS_P2;Temp;Humidity;BMP_temperature;BMP_pressure;BME280_temperature;BME280_humidity;BME280_pressure;Samples;Min_cycle;Max_cycle;Signal;HPM_P1;HPM_P2
2023/11/09 00:03:27;;;;;;;1.53;1.20;;;;;10.00;99718.00;;;;10317583;28;20242;-79
2023/11/09 00:08:30;;;;;;;2.40;1.20;;;;;10.00;99711.00;;;;10311411;28;20237;-80
2023/11/09 00:13:31;;;;;;;4.43;1.40;;;;;10.00;99716.00;;;;10331195;28;20885;-80
2023/11/09 00:18:32;;;;;;;1.70;1.20;;;;;10.00;99696.00;;;;10314300;28;21042;-78
2023/11/09 00:23:34;;;;;;;5.83;1.10;;;;;10.00;99685.00;;;;10325226;28;20235;-80
2023/11/09 00:28:36;;;;;;;3.50;1.63;;;;;10.00;99672.00;;;;10315387;28;20234;-78
2023/11/09 00:33:37;;;;;;;1.77;1.47;;;;;10.00;99675.00;;;;10316030;28;20302;-81
2023/11/09 00:38:39;;;;;;;1.97;1.23;;;;;10.10;99673.00;;;;10312665;28;20563;-79
2023/11/09 00:43:40;;;;;;;2.43;1.40;;;;;10.10;99655.00;;;;10322070;28;20898;-82
2023/11/09 00:48:41;;;;;;;2.30;1.40;;;;;10.10;99656.00;;;;10314912;28;20255;-77
2023/11/09 00:53:42;;;;;;;1.60;1.40;;;;;10.10;99654.00;;;;10309322;28;20224;-71
2023/11/09 00:58:43;;;;;;;4.50;1.80;;;;;10.10;99637.00;;;;10309110;28;20876;-71
2023/11/09 01:03:44;;;;;;;3.07;1.50;;;;;10.10;99633.00;;;;10319102;28;20223;-71
2023/11/09 01:08:45;;;;;;;2.33;1.40;;;;;10.10;99634.00;;;;10302648;28;20234;-71
2023/11/09 01:13:46;;;;;;;3.90;1.60;;;;;10.10;99635.00;;;;10309137;28;20928;-71
2023/11/09 01:18:48;;;;;;;8.73;1.90;;;;;10.20;99625.00;;;;10306590;28;20674;-71
2023/11/09 01:23:49;;;;;;;3.60;1.80;;;;;10.20;99618.00;;;;10310471;28;20247;-71
2023/11/09 01:28:50;;;;;;;3.27;2.03;;;;;10.20;99615.00;;;;10308278;28;20948;-71
2023/11/09 01:33:51;;;;;;;3.30;1.70;;;;;10.20;99607.00;;;;10313109;28;20290;-72
2023/11/09 01:38:57;;;;;;;3.27;1.70;;;;;10.20;99598.00;;;;10324465;28;20248;-71
2023/11/09 01:44:00;;;;;;;3.00;2.20;;;;;10.20;99605.00;;;;10308825;28;20294;-72
2023/11/09 01:49:01;;;;;;;4.43;1.93;;;;;10.30;99607.00;;;;10316432;28;20255;-71
2023/11/09 01:54:04;;;;;;;2.87;1.93;;;;;10.30;99600.00;;;;10297861;28;20681;-71
2023/11/09 01:59:07;;;;;;;3.97;1.80;;;;;10.30;99596.00;;;;10314453;28;20227;-72
2023/11/09 02:04:09;;;;;;;2.37;1.90;;;;;10.30;99594.00;;;;10323293;28;20270;-70
2023/11/09 02:09:10;;;;;;;5.23;2.53;;;;;10.30;99601.00;;;;10304027;28;20323;-70
2023/11/09 02:14:11;;;;;;;6.30;2.60;;;;;10.30;99601.00;;;;10306684;28;20850;-70
2023/11/09 02:19:17;;;;;;;4.57;2.30;;;;;10.30;99600.00;;;;10320574;28;20235;-71
2023/11/09 02:24:19;;;;;;;2.27;1.93;;;;;10.40;99595.00;;;;10308571;28;20708;-71
2023/11/09 02:29:21;;;;;;;5.07;2.20;;;;;10.40;99585.00;;;;10310427;28;20318;-71
2023/11/09 02:34:23;;;;;;;4.50;2.20;;;;;10.40;99594.00;;;;10299190;28;20251;-70
2023/11/09 02:39:24;;;;;;;3.73;2.33;;;;;10.40;99595.00;;;;10289337;28;20827;-70
2023/11/09 02:44:26;;;;;;;3.80;2.10;;;;;10.40;99592.00;;;;10280012;28;20227;-71
2023/11/09 02:49:27;;;;;;;8.03;2.60;;;;;10.40;99568.00;;;;10304591;28;20223;-71
2023/11/09 02:54:29;;;;;;;4.70;2.10;;;;;10.40;99568.00;;;;10305822;28;20612;-70
2023/11/09 02:59:30;;;;;;;6.67;2.53;;;;;10.40;99575.00;;;;10313878;28;20320;-71
2023/11/09 03:04:33;;;;;;;3.03;2.30;;;;;10.40;99590.00;;;;10324504;28;20218;-70
2023/11/09 03:09:35;;;;;;;3.10;2.23;;;;;10.40;99592.00;;;;10310421;28;20318;-72
2023/11/09 03:14:36;;;;;;;2.97;2.00;;;;;10.40;99579.00;;;;10306411;28;20311;-70
2023/11/09 03:19:39;;;;;;;6.00;2.30;;;;;10.40;99581.00;;;;10309121;28;20242;-70
2023/11/09 03:24:40;;;;;;;3.40;2.37;;;;;10.40;99596.00;;;;10306875;28;20231;-71
2023/11/09 03:29:41;;;;;;;3.10;2.40;;;;;10.30;99597.00;;;;10320037;28;20753;-71
2023/11/09 03:34:42;;;;;;;3.03;2.30;;;;;10.30;99595.00;;;;10306121;28;20243;-70
2023/11/09 03:39:44;;;;;;;4.70;2.50;;;;;10.30;99586.00;;;;10294121;28;20259;-70
2023/11/09 03:44:46;;;;;;;3.10;2.07;;;;;10.20;99594.00;;;;10308361;28;20229;-70
2023/11/09 03:49:47;;;;;;;3.83;2.00;;;;;10.10;99592.00;;;;10303261;28;20254;-71
2023/11/09 03:54:48;;;;;;;2.13;1.70;;;;;10.10;99598.00;;;;10303669;28;20254;-71
2023/11/09 03:59:49;;;;;;;3.17;1.80;;;;;10.00;99622.00;;;;10307030;28;20240;-71
2023/11/09 04:04:51;;;;;;;5.17;1.90;;;;;9.90;99624.00;;;;10293967;28;20286;-70
2023/11/09 04:09:52;;;;;;;5.27;3.23;;;;;9.90;99638.00;;;;10297115;28;20290;-71
2023/11/09 04:14:54;;;;;;;6.30;3.63;;;;;9.80;99637.00;;;;10300976;28;20354;-71
2023/11/09 04:19:55;;;;;;;7.07;4.03;;;;;9.80;99626.00;;;;10309543;28;20822;-70
2023/11/09 04:24:57;;;;;;;6.53;5.30;;;;;9.70;99629.00;;;;10316432;28;20277;-72
2023/11/09 04:30:00;;;;;;;7.57;5.13;;;;;9.70;99625.00;;;;10305743;28;20219;-73
2023/11/09 04:35:02;;;;;;;10.20;5.30;;;;;9.60;99624.00;;;;10299906;28;20327;-72
2023/11/09 04:40:14;;;;;;;10.73;5.90;;;;;9.50;99624.00;;;;10301262;28;20232;-72
2023/11/09 04:45:16;;;;;;;13.20;6.23;;;;;9.50;99611.00;;;;10302549;28;20443;-72
2023/11/09 04:50:27;;;;;;;10.03;6.30;;;;;9.50;99617.00;;;;10309561;28;20886;-72
2023/11/09 04:55:32;;;;;;;8.93;5.93;;;;;9.50;99618.00;;;;10323865;28;20242;-72
2023/11/09 05:11:17;;;;;;;13.40;5.47;;;;;9.30;99627.00;;;;10309325;28;20755;-72
2023/11/09 05:16:18;;;;;;;13.10;5.40;;;;;9.30;99639.00;;;;10324240;28;20858;-72
2023/11/09 05:21:20;;;;;;;14.97;6.63;;;;;9.30;99645.00;;;;10311537;28;20239;-72
2023/11/09 05:26:26;;;;;;;16.93;6.83;;;;;9.30;99640.00;;;;10314673;28;20303;-72
2023/11/09 05:31:28;;;;;;;13.93;6.97;;;;;9.30;99648.00;;;;10309986;28;20247;-72
2023/11/09 05:36:29;;;;;;;16.20;7.40;;;;;9.20;99649.00;;;;10308009;28;20235;-72
2023/11/09 05:41:31;;;;;;;15.10;6.73;;;;;9.20;99646.00;;;;10313991;28;20231;-72
2023/11/09 05:46:33;;;;;;;17.40;7.70;;;;;9.20;99660.00;;;;10310158;28;20239;-72
2023/11/09 05:51:39;;;;;;;19.43;8.50;;;;;9.20;99657.00;;;;10298177;28;20279;-72
2023/11/09 05:56:41;;;;;;;19.53;7.90;;;;;9.10;99650.00;;;;10298004;28;20224;-72
2023/11/09 06:01:44;;;;;;;16.67;7.87;;;;;9.10;99659.00;;;;10303392;28;20220;-73
2023/11/09 06:06:46;;;;;;;21.90;8.63;;;;;9.10;99667.00;;;;10289429;28;20918;-72
2023/11/09 06:11:47;;;;;;;18.23;8.20;;;;;9.10;99666.00;;;;10310079;28;20227;-73
2023/11/09 06:16:48;;;;;;;19.90;8.87;;;;;9.10;99677.00;;;;10298824;28;20235;-72
2023/11/09 06:21:51;;;;;;;20.03;8.63;;;;;9.10;99683.00;;;;10307619;28;20322;-72
2023/11/09 06:26:53;;;;;;;21.53;8.13;;;;;9.10;99677.00;;;;10304883;28;20227;-72
2023/11/09 06:31:54;;;;;;;16.97;8.20;;;;;9.00;99667.00;;;;10302982;28;20326;-72
2023/11/09 06:36:55;;;;;;;17.90;7.00;;;;;9.00;99678.00;;;;10306682;28;20238;-72
2023/11/09 06:41:57;;;;;;;21.47;7.60;;;;;8.90;99674.00;;;;10297970;28;20888;-72
2023/11/09 06:46:58;;;;;;;18.87;6.77;;;;;8.80;99679.00;;;;10291712;28;20267;-74
2023/11/09 06:51:59;;;;;;;22.60;7.20;;;;;8.60;99686.00;;;;10299040;28;20216;-72
2023/11/09 06:57:04;;;;;;;13.63;5.90;;;;;8.50;99701.00;;;;10313261;28;20322;-73
2023/11/09 07:02:07;;;;;;;16.37;6.10;;;;;8.40;99696.00;;;;10312993;28;20874;-72
2023/11/09 07:07:08;;;;;;;18.03;6.13;;;;;8.40;99695.00;;;;10308210;28;20235;-73
2023/11/09 07:12:09;;;;;;;12.83;5.47;;;;;8.40;99705.00;;;;10307562;28;20251;-73
2023/11/09 07:17:11;;;;;;;19.80;5.97;;;;;8.40;99717.00;;;;10307901;28;20238;-73
2023/11/09 07:22:12;;;;;;;16.57;6.20;;;;;8.40;99724.00;;;;10308505;28;20228;-73
2023/11/09 07:27:15;;;;;;;22.73;6.87;;;;;8.40;99723.00;;;;10312160;28;20243;-73
2023/11/09 07:32:16;;;;;;;23.47;6.97;;;;;8.50;99735.00;;;;10312526;28;20250;-73
2023/11/09 07:37:17;;;;;;;18.13;5.90;;;;;8.60;99723.00;;;;10308869;28;20220;-73
2023/11/09 07:42:19;;;;;;;26.17;7.47;;;;;8.60;99723.00;;;;10306582;28;20252;-73
2023/11/09 07:47:20;;;;;;;15.10;6.63;;;;;8.60;99714.00;;;;10312368;28;20318;-73
2023/11/09 07:52:21;;;;;;;22.83;7.63;;;;;8.70;99718.00;;;;10306113;28;20255;-73
2023/11/09 07:57:22;;;;;;;19.13;7.80;;;;;8.60;99722.00;;;;10309833;28;20238;-70
2023/11/09 08:02:23;;;;;;;20.17;7.93;;;;;8.60;99720.00;;;;10291895;28;20219;-71
2023/11/09 08:07:25;;;;;;;22.83;8.13;;;;;8.60;99719.00;;;;10304298;28;20215;-71
2023/11/09 08:12:27;;;;;;;26.13;7.33;;;;;8.70;99717.00;;;;10303702;28;20864;-70
2023/11/09 08:17:29;;;;;;;20.63;7.07;;;;;8.80;99715.00;;;;10300330;28;20227;-70
2023/11/09 08:22:32;;;;;;;15.30;6.50;;;;;8.90;99716.00;;;;10311575;28;20229;-70
2023/11/09 08:27:37;;;;;;;17.07;7.47;;;;;9.10;99709.00;;;;10303028;28;20343;-70
2023/11/09 08:32:39;;;;;;;24.77;8.93;;;;;9.40;99702.00;;;;10278477;28;20241;-71
2023/11/09 08:37:41;;;;;;;24.60;8.27;;;;;9.60;99709.00;;;;10301905;28;20286;-71
2023/11/09 08:42:49;;;;;;;24.57;7.90;;;;;9.70;99711.00;;;;10313447;28;20227;-70
2023/11/09 08:47:53;;;;;;;19.53;7.27;;;;;9.90;99722.00;;;;10298419;28;20231;-69
2023/11/09 08:52:55;;;;;;;26.17;8.30;;;;;10.30;99710.00;;;;10282768;28;20223;-69
2023/11/09 08:57:59;;;;;;;25.77;7.80;;;;;10.60;99703.00;;;;10291524;28;20231;-69
2023/11/09 09:03:01;;;;;;;22.83;6.87;;;;;10.80;99709.00;;;;10295363;28;20231;-71
2023/11/09 09:08:03;;;;;;;19.47;7.03;;;;;11.00;99715.00;;;;10300632;28;20323;-70
2023/11/09 09:13:10;;;;;;;21.03;6.53;;;;;11.20;99711.00;;;;10298599;28;20306;-70
2023/11/09 09:18:11;;;;;;;18.33;6.30;;;;;11.60;99708.00;;;;10298920;28;20315;-71
2023/11/09 09:23:13;;;;;;;16.17;4.90;;;;;11.80;99708.00;;;;10296505;28;20243;-71
2023/11/09 09:28:14;;;;;;;10.73;3.90;;;;;12.00;99706.00;;;;10313897;28;20222;-71
2023/11/09 09:33:16;;;;;;;16.33;3.75;;;;;12.10;99714.00;;;;10291103;28;20230;-71
2023/11/09 09:38:17;;;;;;;14.40;4.03;;;;;12.40;99716.00;;;;10298920;28;20236;-71
2023/11/09 09:43:22;;;;;;;14.85;4.22;;;;;12.60;99712.00;;;;10300169;28;20228;-70
2023/11/09 09:48:27;;;;;;;14.57;3.50;;;;;12.60;99719.00;;;;10310835;28;20229;-70
2023/11/09 09:53:30;;;;;;;13.70;3.28;;;;;12.90;99710.00;;;;10302043;28;20223;-71
2023/11/09 09:58:31;;;;;;;15.73;4.20;;;;;12.90;99715.00;;;;10302445;28;20242;-71
2023/11/09 10:03:33;;;;;;;11.13;4.43;;;;;12.50;99711.00;;;;10308879;28;20932;-70
2023/11/09 10:08:36;;;;;;;15.00;4.20;;;;;12.50;99714.00;;;;10301874;28;20258;-71
2023/11/09 10:13:45;;;;;;;11.48;5.53;;;;;12.90;99718.00;;;;10295532;28;20270;-69
2023/11/09 10:18:48;;;;;;;11.32;4.13;;;;;12.80;99719.00;;;;10289974;28;20280;-71
2023/11/09 10:23:55;;;;;;;15.48;4.55;;;;;12.70;99716.00;;;;10289418;28;20884;-70
2023/11/09 10:28:57;;;;;;;14.02;4.70;;;;;12.70;99719.00;;;;10287533;28;20291;-72
2023/11/09 10:33:58;;;;;;;20.65;5.22;;;;;13.10;99711.00;;;;10301668;28;20264;-71
2023/11/09 10:38:59;;;;;;;14.32;3.95;;;;;13.70;99697.00;;;;10293262;28;20232;-70
2023/11/09 10:44:01;;;;;;;13.52;3.90;;;;;13.90;99689.00;;;;10305828;28;20239;-70
2023/11/09 10:49:07;;;;;;;16.20;4.65;;;;;14.10;99675.00;;;;10307165;28;20243;-69
2023/11/09 10:54:10;;;;;;;19.45;4.22;;;;;13.80;99669.00;;;;10294998;28;20220;-70
2023/11/09 10:59:11;;;;;;;17.52;3.97;;;;;13.80;99658.00;;;;10303385;28;20236;-70
2023/11/09 11:04:14;;;;;;;13.57;4.30;;;;;13.20;99656.00;;;;10305147;28;20712;-72
2023/11/09 11:09:25;;;;;;;12.90;3.45;;;;;13.70;99656.00;;;;10308950;28;20716;-72
2023/11/09 11:14:31;;;;;;;16.02;4.00;;;;;14.30;99647.00;;;;10301902;28;20227;-70
2023/11/09 11:20:03;;;;;;;13.95;3.42;;;;;14.20;99653.00;;;;10306762;28;20231;-70
2023/11/09 11:25:38;;;;;;;21.17;4.32;;;;;13.70;99647.00;;;;10298108;28;20231;-71
2023/11/09 11:30:39;;;;;;;12.00;3.65;;;;;13.40;99640.00;;;;10295703;28;20315;-72
2023/11/09 11:35:52;;;;;;;12.40;3.00;;;;;13.70;99627.00;;;;10290792;28;20234;-72
2023/11/09 11:41:00;;;;;;;13.98;3.45;;;;;13.60;99623.00;;;;10303984;28;21043;-71
2023/11/09 11:46:11;;;;;;;19.27;3.42;;;;;14.10;99613.00;;;;10300398;28;20224;-71
2023/11/09 11:51:15;;;;;;;13.10;3.92;;;;;14.20;99618.00;;;;10323055;28;20238;-71
2023/11/09 11:56:30;;;;;;;10.10;3.35;;;;;13.90;99610.00;;;;10303383;28;20319;-71
2023/11/09 12:01:33;;;;;;;12.00;3.15;;;;;13.60;99606.00;;;;10302867;28;20216;-71
2023/11/09 12:06:37;;;;;;;14.45;3.22;;;;;13.50;99589.00;;;;10299982;28;20257;-71
2023/11/09 12:11:43;;;;;;;16.58;3.40;;;;;13.30;99593.00;;;;10271598;28;20230;-71
2023/11/09 12:16:45;;;;;;;13.40;3.03;;;;;13.30;99585.00;;;;10306475;28;20234;-72
2023/11/09 12:21:46;;;;;;;14.65;3.13;;;;;13.60;99576.00;;;;10306405;28;20232;-72
2023/11/09 12:27:02;;;;;;;12.10;3.03;;;;;13.60;99580.00;;;;10295254;28;20220;-71
2023/11/09 12:32:04;;;;;;;17.55;3.10;;;;;13.70;99564.00;;;;10299960;28;20219;-71
2023/11/09 12:37:17;;;;;;;13.73;3.20;;;;;13.50;99567.00;;;;10331044;28;20228;-74
2023/11/09 12:42:24;;;;;;;19.75;3.38;;;;;13.30;99560.00;;;;10312699;28;20311;-73
2023/11/09 12:47:30;;;;;;;12.45;2.88;;;;;13.00;99544.00;;;;10304619;28;21125;-74
2023/11/09 12:52:36;;;;;;;10.13;2.28;;;;;12.80;99542.00;;;;10301179;28;20880;-73
2023/11/09 12:57:42;;;;;;;16.05;2.80;;;;;13.50;99530.00;;;;10309933;28;20224;-74
2023/11/09 13:02:43;;;;;;;12.75;3.30;;;;;14.20;99540.00;;;;10314205;28;20220;-74
2023/11/09 13:07:48;;;;;;;14.88;2.70;;;;;14.00;99531.00;;;;10315939;28;20228;-73
2023/11/09 13:12:51;;;;;;;11.35;2.22;;;;;13.30;99525.00;;;;10319920;28;20258;-73
2023/11/09 13:17:56;;;;;;;9.38;2.42;;;;;12.90;99506.00;;;;10317062;28;20245;-73
2023/11/09 13:23:09;;;;;;;12.52;2.13;;;;;12.60;99494.00;;;;10311880;28;20222;-74
2023/11/09 13:28:16;;;;;;;11.07;3.03;;;;;12.20;99480.00;;;;10307080;28;20282;-73
2023/11/09 13:33:29;;;;;;;8.90;2.17;;;;;12.10;99478.00;;;;10320833;28;20304;-73
2023/11/09 13:59:43;;;;;;;10.73;2.70;;;;;12.60;99444.00;;;;10307366;28;20234;-71
2023/11/09 14:04:53;;;;;;;13.85;2.72;;;;;12.60;99434.00;;;;10309533;28;20843;-70
2023/11/09 14:09:54;;;;;;;11.15;2.33;;;;;12.50;99424.00;;;;10307674;28;20605;-71
2023/11/09 14:14:55;;;;;;;8.27;2.20;;;;;12.20;99421.00;;;;10323478;28;20314;-70
2023/11/09 14:19:56;;;;;;;11.45;2.47;;;;;12.20;99411.00;;;;10317811;28;20573;-71
2023/11/09 14:24:57;;;;;;;9.45;1.83;;;;;12.40;99410.00;;;;10311507;28;20220;-71
2023/11/09 14:29:59;;;;;;;10.48;2.28;;;;;12.30;99398.00;;;;10328521;28;20252;-70
2023/11/09 14:35:01;;;;;;;7.93;2.10;;;;;12.30;99394.00;;;;10304031;28;20231;-71
2023/11/09 14:40:13;;;;;;;12.60;2.13;;;;;12.00;99383.00;;;;10317433;28;20228;-71
2023/11/09 14:45:18;;;;;;;6.13;1.77;;;;;11.80;99369.00;;;;10285842;28;20242;-71
2023/11/09 14:50:20;;;;;;;8.15;2.28;;;;;11.80;99366.00;;;;10322877;28;20227;-70
2023/11/09 14:55:22;;;;;;;9.32;1.98;;;;;11.70;99351.00;;;;10319133;28;20665;-71
2023/11/09 15:00:24;;;;;;;6.78;2.03;;;;;11.40;99351.00;;;;10308082;28;20231;-71
2023/11/09 15:05:28;;;;;;;7.93;2.60;;;;;11.10;99337.00;;;;10311004;28;20243;-71
2023/11/09 15:10:31;;;;;;;10.50;2.77;;;;;10.90;99325.00;;;;10305415;28;20219;-71
2023/11/09 15:15:32;;;;;;;6.97;2.33;;;;;10.70;99314.00;;;;10304375;28;20216;-71
2023/11/09 15:20:34;;;;;;;6.67;1.97;;;;;10.60;99319.00;;;;10316548;28;20234;-71
2023/11/09 15:25:42;;;;;;;7.57;2.23;;;;;10.50;99326.00;;;;10311626;28;20235;-71
2023/11/09 15:30:44;;;;;;;6.87;2.13;;;;;10.50;99326.00;;;;10302002;28;20797;-71
2023/11/09 15:35:47;;;;;;;8.67;2.50;;;;;10.50;99322.00;;;;10298903;28;20243;-71
2023/11/09 15:40:48;;;;;;;10.70;2.47;;;;;10.50;99381.00;;;;10307108;28;20231;-71
2023/11/09 15:46:15;;;;;;;1.60;0.90;;;;;9.30;99414.00;;;;10311616;28;20216;-72
2023/11/09 15:51:16;;;;;;;2.10;0.50;;;;;8.00;99389.00;;;;10310769;28;20246;-72
2023/11/09 15:56:17;;;;;;;0.77;0.50;;;;;7.60;99392.00;;;;10331603;28;20294;-72
2023/11/09 16:01:19;;;;;;;2.00;0.50;;;;;7.30;99377.00;;;;10304953;28;20219;-71
2023/11/09 16:06:20;;;;;;;1.73;0.53;;;;;7.20;99374.00;;;;10311099;28;20221;-72
2023/11/09 16:11:21;;;;;;;3.13;0.50;;;;;7.20;99335.00;;;;10316873;28;20238;-73
2023/11/09 16:16:24;;;;;;;0.40;0.40;;;;;7.20;99328.00;;;;10313464;28;20318;-73
2023/11/09 16:21:26;;;;;;;0.87;0.50;;;;;7.20;99336.00;;;;10310540;28;20286;-73
2023/11/09 16:26:33;;;;;;;1.07;0.90;;;;;7.30;99347.00;;;;10313763;28;20223;-73
2023/11/09 16:31:34;;;;;;;2.50;0.67;;;;;7.40;99348.00;;;;10309437;28;20216;-73
2023/11/09 16:36:35;;;;;;;4.17;0.70;;;;;7.50;99348.00;;;;10306292;28;20235;-73
2023/11/09 16:41:36;;;;;;;2.97;0.83;;;;;7.60;99336.00;;;;10314899;28;20231;-73
2023/11/09 16:46:40;;;;;;;3.30;1.00;;;;;7.60;99326.00;;;;10289870;28;20236;-73
2023/11/09 16:51:41;;;;;;;5.03;1.20;;;;;7.70;99305.00;;;;10282958;28;20228;-73
2023/11/09 16:56:43;;;;;;;4.70;1.30;;;;;7.70;99256.00;;;;10315486;28;20260;-74
2023/11/09 17:01:44;;;;;;;2.80;0.87;;;;;7.70;99250.00;;;;10303181;28;20309;-73
2023/11/09 17:06:45;;;;;;;1.67;0.97;;;;;7.60;99294.00;;;;10308122;28;20854;-73
2023/11/09 17:11:46;;;;;;;1.97;0.90;;;;;7.60;99298.00;;;;10308480;28;20855;-73
2023/11/09 17:16:47;;;;;;;2.70;1.00;;;;;7.60;99309.00;;;;10304668;28;20231;-72
2023/11/09 17:21:49;;;;;;;2.13;1.00;;;;;7.50;99319.00;;;;10284244;28;20307;-72
2023/11/09 17:26:50;;;;;;;2.50;1.07;;;;;7.50;99337.00;;;;10313725;28;20688;-71
2023/11/09 17:31:51;;;;;;;3.33;1.40;;;;;7.50;99328.00;;;;10318602;28;20239;-71
2023/11/09 17:36:53;;;;;;;3.40;1.20;;;;;7.50;99339.00;;;;10306299;28;20725;-71
2023/11/09 17:41:56;;;;;;;4.13;1.23;;;;;7.50;99338.00;;;;10301358;28;20285;-71
2023/11/09 17:46:57;;;;;;;3.40;1.37;;;;;7.40;99331.00;;;;10298077;28;20363;-72
2023/11/09 17:51:59;;;;;;;4.43;1.37;;;;;7.40;99342.00;;;;10298861;28;20216;-71
2023/11/09 17:57:03;;;;;;;2.83;1.20;;;;;7.40;99332.00;;;;10297802;28;20228;-71
2023/11/09 18:02:05;;;;;;;2.40;1.30;;;;;7.40;99310.00;;;;10305859;28;20220;-71
2023/11/09 18:07:07;;;;;;;5.10;1.40;;;;;7.40;99299.00;;;;10314252;28;20215;-71
2023/11/09 18:12:10;;;;;;;3.90;1.50;;;;;7.30;99300.00;;;;10299895;28;20220;-72
2023/11/09 18:17:16;;;;;;;4.10;1.70;;;;;7.20;99291.00;;;;10308649;28;20281;-72
2023/11/09 18:22:18;;;;;;;5.40;1.60;;;;;7.20;99308.00;;;;10309387;28;20683;-72
2023/11/09 18:27:19;;;;;;;3.03;1.63;;;;;7.10;99299.00;;;;10317102;28;20220;-73
2023/11/09 18:32:20;;;;;;;3.60;1.40;;;;;7.10;99321.00;;;;10319807;28;20230;-73
2023/11/09 18:37:22;;;;;;;2.43;1.37;;;;;7.10;99316.00;;;;10320369;28;20358;-72
2023/11/09 18:42:23;;;;;;;6.67;1.87;;;;;7.10;99316.00;;;;10314589;28;20229;-72
2023/11/09 18:47:26;;;;;;;4.63;1.57;;;;;7.10;99325.00;;;;10318419;28;20224;-73
2023/11/09 18:52:28;;;;;;;2.70;1.40;;;;;7.10;99331.00;;;;10315063;28;20271;-72
2023/11/09 18:57:29;;;;;;;4.87;1.63;;;;;7.00;99321.00;;;;10312456;28;20341;-73
2023/11/09 19:02:31;;;;;;;2.63;1.20;;;;;6.90;99326.00;;;;10318546;28;20230;-73
2023/11/09 19:07:32;;;;;;;2.90;1.43;;;;;6.90;99333.00;;;;10314094;28;20952;-72
2023/11/09 19:12:33;;;;;;;2.97;1.30;;;;;6.90;99333.00;;;;10317051;28;21047;-73
2023/11/09 19:17:36;;;;;;;5.43;1.30;;;;;6.90;99336.00;;;;10322615;28;20231;-72
2023/11/09 19:22:39;;;;;;;2.90;1.50;;;;;7.00;99334.00;;;;10318045;28;20347;-72
2023/11/09 19:27:40;;;;;;;3.27;1.97;;;;;7.00;99345.00;;;;10317038;28;20645;-72
2023/11/09 19:32:44;;;;;;;2.73;1.43;;;;;7.00;99326.00;;;;10314823;28;20306;-73
2023/11/09 19:37:45;;;;;;;5.10;1.60;;;;;7.00;99330.00;;;;10297772;28;20270;-71
2023/11/09 19:42:47;;;;;;;6.43;1.70;;;;;7.00;99346.00;;;;10321786;28;20235;-71
2023/11/09 19:47:48;;;;;;;3.83;1.63;;;;;7.00;99341.00;;;;10318771;28;20227;-70
2023/11/09 19:52:50;;;;;;;2.83;1.60;;;;;7.00;99328.00;;;;10309376;28;20259;-71
2023/11/09 19:57:51;;;;;;;2.77;1.90;;;;;7.00;99333.00;;;;10312008;28;20236;-71
2023/11/09 20:02:53;;;;;;;4.13;1.80;;;;;7.00;99324.00;;;;10311519;28;20227;-71
2023/11/09 20:07:54;;;;;;;4.70;1.87;;;;;6.90;99327.00;;;;10298841;28;20231;-72
2023/11/09 20:12:55;;;;;;;3.77;1.47;;;;;6.90;99338.00;;;;10323003;28;20226;-71
2023/11/09 20:17:57;;;;;;;4.83;1.70;;;;;6.90;99333.00;;;;10306169;28;20242;-71
2023/11/09 20:22:59;;;;;;;4.53;1.20;;;;;6.90;99338.00;;;;10307580;28;20224;-71
2023/11/09 20:28:00;;;;;;;2.57;1.40;;;;;7.00;99336.00;;;;10301028;28;20219;-71
2023/11/09 20:33:02;;;;;;;4.70;2.00;;;;;7.00;99337.00;;;;10301330;28;20239;-71
2023/11/09 20:38:04;;;;;;;4.47;2.33;;;;;7.00;99332.00;;;;10300467;28;20277;-71
2023/11/09 20:43:08;;;;;;;5.67;1.93;;;;;7.00;99326.00;;;;10300783;28;20621;-70
2023/11/09 20:48:09;;;;;;;8.07;2.23;;;;;7.00;99324.00;;;;10309176;28;20224;-69
2023/11/09 20:53:11;;;;;;;7.23;3.00;;;;;7.00;99315.00;;;;10306246;28;20227;-69
2023/11/09 20:58:13;;;;;;;5.77;2.20;;;;;6.90;99310.00;;;;10289778;28;20234;-70
2023/11/09 21:03:14;;;;;;;3.03;1.90;;;;;6.90;99309.00;;;;10298951;28;20969;-71
2023/11/09 21:08:17;;;;;;;3.27;1.87;;;;;6.90;99295.00;;;;10315291;28;20698;-71
2023/11/09 21:13:18;;;;;;;7.87;2.87;;;;;6.80;99284.00;;;;10314669;28;20855;-70
2023/11/09 21:18:19;;;;;;;3.47;2.47;;;;;6.70;99280.00;;;;10319833;28;20591;-69
2023/11/09 21:23:21;;;;;;;4.50;2.70;;;;;6.80;99273.00;;;;10312043;28;20780;-71
2023/11/09 21:28:22;;;;;;;7.03;2.33;;;;;6.80;99276.00;;;;10306627;28;20243;-69
2023/11/09 21:33:26;;;;;;;4.77;2.20;;;;;6.90;99265.00;;;;10309142;28;20252;-69
2023/11/09 21:38:28;;;;;;;3.50;2.30;;;;;6.90;99262.00;;;;10315635;28;20796;-70
2023/11/09 21:43:29;;;;;;;2.77;1.77;;;;;7.00;99259.00;;;;10322310;28;20225;-70
2023/11/09 21:48:30;;;;;;;7.83;2.43;;;;;7.00;99249.00;;;;10329604;28;20227;-71
2023/11/09 21:53:31;;;;;;;5.57;1.73;;;;;7.10;99243.00;;;;10322176;28;20235;-71
2023/11/09 21:58:32;;;;;;;3.80;1.63;;;;;7.10;99250.00;;;;10310041;28;20223;-71
2023/11/09 22:03:34;;;;;;;8.10;2.23;;;;;7.20;99236.00;;;;10317639;28;20215;-71
2023/11/09 22:08:36;;;;;;;4.07;1.40;;;;;7.20;99228.00;;;;10309533;28;20232;-70
2023/11/09 22:13:39;;;;;;;4.20;1.40;;;;;7.30;99227.00;;;;10327707;28;20232;-71
2023/11/09 22:18:40;;;;;;;3.73;1.13;;;;;7.30;99234.00;;;;10315527;28;20228;-71
2023/11/09 22:23:41;;;;;;;7.17;1.40;;;;;7.30;99230.00;;;;10311908;28;20515;-71
2023/11/09 22:28:42;;;;;;;7.10;1.60;;;;;7.20;99225.00;;;;10312755;28;20342;-71
2023/11/09 22:33:43;;;;;;;7.37;1.60;;;;;7.20;99223.00;;;;10307371;28;20231;-71
2023/11/09 22:38:45;;;;;;;3.53;1.87;;;;;7.10;99221.00;;;;10306614;28;20673;-71
2023/11/09 22:43:48;;;;;;;11.27;2.43;;;;;7.10;99224.00;;;;10304123;28;20645;-71
2023/11/09 22:48:49;;;;;;;4.43;1.50;;;;;7.10;99217.00;;;;10315354;28;20255;-71
2023/11/09 22:53:50;;;;;;;2.23;1.20;;;;;7.10;99206.00;;;;10308526;28;20227;-72
2023/11/09 22:58:51;;;;;;;6.70;1.30;;;;;7.10;99200.00;;;;10309245;28;20227;-70
2023/11/09 23:03:54;;;;;;;5.57;1.87;;;;;7.20;99208.00;;;;10319168;28;20238;-73
2023/11/09 23:08:55;;;;;;;4.77;1.40;;;;;7.30;99217.00;;;;10320749;28;20692;-72
2023/11/09 23:13:58;;;;;;;3.20;1.47;;;;;7.30;99212.00;;;;10312721;28;20697;-72
2023/11/09 23:18:59;;;;;;;4.83;1.80;;;;;7.30;99193.00;;;;10310808;28;20314;-73
2023/11/09 23:24:01;;;;;;;7.50;1.63;;;;;7.40;99203.00;;;;10317895;28;20228;-72
2023/11/09 23:29:02;;;;;;;5.93;1.50;;;;;7.40;99180.00;;;;10313326;28;20624;-72
2023/11/09 23:34:03;;;;;;;4.57;1.63;;;;;7.30;99174.00;;;;10325862;28;20220;-73
2023/11/09 23:39:04;;;;;;;4.37;1.63;;;;;7.40;99176.00;;;;10312459;28;20759;-73
2023/11/09 23:44:06;;;;;;;3.83;1.90;;;;;7.40;99166.00;;;;10324768;28;20222;-73
2023/11/09 23:49:07;;;;;;;3.87;1.80;;;;;7.40;99166.00;;;;10328036;28;20306;-72
2023/11/09 23:54:08;;;;;;;3.77;1.60;;;;;7.40;99158.00;;;;10311052;28;20236;-73
2023/11/09 23:59:10;;;;;;;6.93;1.77;;;;;7.40;99157.00;;;;10313737;28;20223;-72
